Sterrett, TX

12:53 AM CST on December 06, 2016 (GMT -0600)
Waterview Farms | | Change Station
Active Advisory: Dense Fog Advisory

Elev 541 ft 32.52 °N, 96.83 °W | Updated 15 seconds ago

Overcast
Overcast
47.6 °F
Feels Like 48 °F
N
1.0
Wind Variable Wind from South

Today
High -- | Low -- °F
--% Chance of Precip.
Yesterday
High -- | Low -- °F
Precip. -- in
Pressure 29.74 in
Visibility 5.0 miles
Clouds Overcast 300 ft
Windchill 48 °F
Dew Point 47 °F
Humidity 98%
Rainfall 0.00 in
Snow Depth Not available.
7:15 AM 5:21 PM
Waxing Crescent, 39% visible
METAR KJWY 060635Z AUTO 18003KT 5SM BR OVC003 09/09 A2974 RMK AO2 T00880088
Pressure 29.74 in
Visibility 5.0 miles
Clouds Overcast 300 ft
Windchill 48 °F
Dew Point 47 °F
Humidity 98%
Rainfall 0.00 in
Snow Depth Not available.
7:15 AM 5:21 PM
Waxing Crescent, 39% visible
METAR KJWY 060635Z AUTO 18003KT 5SM BR OVC003 09/09 A2974 RMK AO2 T00880088

10-Day Weather Forecast

Almanac

Astronomy

Dec. 06, 2016 Rise Set
Actual Time
Civil Twilight
Nautical Twilight
Astronomical Twilight
Moon
Length of Visible Light
Length of Day
Tomorrow will be .
, % of the Moon is Illuminated

Today's Extremes

State Highs State Lows

Community

WunderPhotos

Upload Photos

1,955,932 photos uploaded!

WunderBlog® & News

Nearby

Air Quality

  Air Quality AQ Index Pollutant
Not available.

Snow Depth

Station Depth Elevation

Earthquake Activity

City Distance Mag. Time & Date
Minimum magnitude displayed is 2.5.

Coastal Water Temperatures

Place Temperature

Stations

Nearby Weather Stations

Station Location Temp. Windchill Dew Point Humidity Wind Precip. Elev Updated Type
                   

Watches & Warnings

Dense Fog Advisory
Issued: 10:08 PM CST Dec. 5, 2016 – National Weather Service

... Dense fog advisory in effect until 8 am CST Tuesday...

The National Weather Service in Fort Worth has issued a dense fog
advisory... which is in effect until 8 am CST Tuesday.

* Visibility... half a mile with occasionally a quarter of a mile
or less.

* Location... most of the Interstate 20, Interstate 35 and
Interstate 45 corridors.

* Timing... midnight until 8 am.

* Impacts... visibility restrictions may produce hazardous driving
conditions during early morning commutes.

Precautionary/preparedness actions...

A dense fog advisory means visibilities will be reduced to less
than one quarter mile. If driving... slow down... use your low-beam
headlights... and leave plenty of distance between you and the
vehicle ahead of you.



30